createdAt,value
2019-03-27T00:01:26.896Z,14.70
2019-03-27T00:03:52.676Z,13.93
2019-03-27T00:06:18.467Z,15.47
2019-03-27T00:08:44.254Z,16.80
2019-03-27T00:11:10.047Z,13.50
2019-03-27T00:13:35.824Z,14.50
2019-03-27T00:16:01.612Z,19.67
2019-03-27T00:18:27.396Z,13.97
2019-03-27T00:20:53.321Z,14.90
2019-03-27T00:23:19.111Z,15.80
2019-03-27T00:25:45.015Z,11.97
2019-03-27T00:28:10.798Z,15.67
2019-03-27T00:30:36.597Z,17.30
2019-03-27T00:33:02.373Z,20.57
2019-03-27T00:35:28.160Z,24.27
2019-03-27T00:37:53.940Z,15.33
2019-03-27T00:40:19.723Z,15.67
2019-03-27T00:42:45.520Z,21.90
2019-03-27T00:45:11.420Z,15.00
2019-03-27T00:47:37.198Z,17.57
2019-03-27T00:50:07.376Z,15.83
2019-03-27T00:52:33.170Z,14.33
2019-03-27T00:54:58.954Z,14.77
2019-03-27T00:57:24.749Z,16.47
2019-03-27T00:59:50.521Z,16.83
2019-03-27T01:02:16.374Z,12.90
2019-03-27T01:04:42.091Z,13.43
2019-03-27T01:07:07.886Z,15.20
2019-03-27T01:09:33.668Z,15.50
2019-03-27T01:11:59.659Z,16.10
2019-03-27T01:14:25.444Z,17.10
2019-03-27T01:16:51.240Z,20.80
2019-03-27T01:19:17.018Z,21.23
2019-03-27T01:21:42.808Z,16.13
2019-03-27T01:24:08.599Z,23.57
2019-03-27T01:26:34.395Z,15.50
2019-03-27T01:29:00.173Z,17.77
2019-03-27T01:31:25.963Z,19.13
2019-03-27T01:33:51.741Z,12.83
2019-03-27T01:36:17.536Z,20.50
2019-03-27T01:38:43.320Z,17.73
2019-03-27T01:41:09.103Z,15.70
2019-03-27T01:43:34.895Z,24.77
2019-03-27T01:46:00.677Z,16.20
2019-03-27T01:48:26.464Z,18.30
2019-03-27T01:50:52.259Z,17.30
2019-03-27T01:53:18.060Z,18.20
2019-03-27T01:55:43.834Z,18.63
2019-03-27T01:58:09.632Z,15.97
2019-03-27T02:00:35.413Z,16.07
2019-03-27T02:03:01.203Z,15.50
2019-03-27T02:05:26.989Z,15.10
2019-03-27T02:07:52.797Z,18.00
2019-03-27T02:10:18.571Z,21.37
2019-03-27T02:12:44.361Z,14.97
2019-03-27T02:15:10.455Z,16.23
2019-03-27T02:17:36.252Z,18.90
2019-03-27T02:20:03.835Z,17.30
2019-03-27T02:22:29.650Z,16.27
2019-03-27T02:24:55.424Z,17.13
2019-03-27T02:27:21.211Z,17.87
2019-03-27T02:29:46.992Z,15.30
2019-03-27T02:32:12.785Z,14.90
2019-03-27T02:34:38.560Z,14.57
2019-03-27T02:37:04.363Z,17.43
2019-03-27T02:39:30.138Z,18.27
2019-03-27T02:41:55.937Z,16.17
2019-03-27T02:44:21.705Z,19.73
2019-03-27T02:46:47.475Z,13.70
2019-03-27T02:49:13.269Z,14.67
2019-03-27T02:51:39.049Z,17.93
2019-03-27T02:54:04.841Z,16.93
2019-03-27T02:56:30.619Z,16.50
2019-03-27T02:58:56.416Z,18.50
2019-03-27T03:01:22.188Z,15.13
2019-03-27T03:03:47.980Z,16.83
2019-03-27T03:06:13.759Z,17.17
2019-03-27T03:08:39.547Z,18.40
2019-03-27T03:11:05.325Z,16.83
2019-03-27T03:13:31.116Z,22.17
2019-03-27T03:15:56.899Z,14.60
2019-03-27T03:18:22.682Z,16.37
2019-03-27T03:20:48.455Z,19.67
2019-03-27T03:23:14.267Z,21.40
2019-03-27T03:25:40.048Z,18.87
2019-03-27T03:28:05.847Z,22.53
2019-03-27T03:30:31.633Z,17.43
2019-03-27T03:32:57.446Z,18.27
2019-03-27T03:35:23.222Z,13.97
2019-03-27T03:37:49.006Z,18.57
2019-03-27T03:40:15.194Z,15.97
2019-03-27T03:42:41.073Z,20.87
2019-03-27T03:45:06.969Z,18.17
2019-03-27T03:47:32.750Z,16.80
2019-03-27T03:49:58.553Z,19.27
2019-03-27T03:52:24.338Z,18.27
2019-03-27T03:54:51.523Z,18.03
2019-03-27T03:57:18.210Z,15.60
2019-03-27T03:59:44.107Z,19.37
2019-03-27T04:02:10.991Z,22.57
2019-03-27T04:04:38.688Z,15.47
2019-03-27T04:07:04.476Z,18.00
2019-03-27T04:09:30.263Z,21.83
2019-03-27T04:11:56.047Z,21.07
2019-03-27T04:14:21.849Z,16.60
2019-03-27T04:16:47.635Z,16.53
2019-03-27T04:19:13.431Z,16.03
2019-03-27T04:21:39.226Z,17.37
2019-03-27T04:24:05.043Z,18.33
2019-03-27T04:26:33.525Z,19.50
2019-03-27T04:28:58.515Z,19.37
2019-03-27T04:31:24.322Z,24.17
2019-03-27T04:33:50.108Z,19.10
2019-03-27T04:36:15.905Z,21.10
2019-03-27T04:38:41.696Z,17.33
2019-03-27T04:41:07.462Z,18.67
2019-03-27T04:43:33.244Z,16.87
2019-03-27T04:45:59.035Z,21.50
2019-03-27T04:48:24.812Z,19.17
2019-03-27T04:50:50.603Z,16.70
2019-03-27T04:53:16.394Z,19.47
2019-03-27T04:55:42.178Z,18.47
2019-03-27T04:58:07.967Z,20.50
2019-03-27T05:00:33.758Z,16.63
2019-03-27T05:02:59.538Z,20.33
2019-03-27T05:05:25.327Z,16.13
2019-03-27T05:07:51.114Z,19.03
2019-03-27T05:10:16.903Z,22.13
2019-03-27T05:12:42.676Z,19.70
2019-03-27T05:15:08.550Z,18.33
2019-03-27T05:17:45.210Z,17.57
2019-03-27T05:20:04.827Z,21.90
2019-03-27T05:22:30.644Z,18.60
2019-03-27T05:24:56.427Z,21.23
2019-03-27T05:27:22.227Z,23.10
2019-03-27T05:29:48.002Z,22.73
2019-03-27T05:32:13.789Z,20.27
2019-03-27T05:34:39.574Z,22.00
2019-03-27T05:37:05.378Z,20.27
2019-03-27T05:39:31.150Z,21.63
2019-03-27T05:41:56.947Z,20.83
2019-03-27T05:44:22.729Z,22.30
2019-03-27T05:46:48.518Z,24.73
2019-03-27T05:49:14.295Z,23.13
2019-03-27T05:51:40.083Z,20.27
2019-03-27T05:54:05.868Z,20.43
2019-03-27T05:56:31.663Z,20.07
2019-03-27T05:58:57.446Z,19.60
2019-03-27T06:01:23.251Z,21.47
2019-03-27T06:03:49.030Z,26.47
2019-03-27T06:06:14.850Z,18.90
2019-03-27T06:08:40.628Z,17.23
2019-03-27T06:11:06.415Z,20.57
2019-03-27T06:13:32.214Z,20.10
2019-03-27T06:15:57.992Z,15.87
2019-03-27T06:18:23.788Z,16.67
2019-03-27T06:20:49.573Z,17.07
2019-03-27T06:23:15.375Z,17.00
2019-03-27T06:25:41.151Z,13.80
2019-03-27T06:28:06.948Z,11.77
2019-03-27T06:30:32.724Z,16.70
2019-03-27T06:32:58.519Z,14.67
2019-03-27T06:35:24.307Z,14.97
2019-03-27T06:37:50.109Z,16.87
2019-03-27T06:40:15.888Z,12.87
2019-03-27T06:42:41.677Z,9.97
2019-03-27T06:45:08.102Z,14.53
2019-03-27T06:47:33.861Z,15.40
2019-03-27T06:49:59.637Z,14.27
2019-03-27T06:52:25.431Z,11.63
2019-03-27T06:54:51.212Z,12.13
2019-03-27T06:57:17.006Z,11.90
2019-03-27T06:59:42.787Z,12.10
2019-03-27T07:02:08.670Z,12.33
2019-03-27T07:04:34.486Z,13.47
2019-03-27T07:07:00.260Z,14.63
2019-03-27T07:09:26.057Z,8.07
2019-03-27T07:11:51.839Z,13.60
2019-03-27T07:14:17.631Z,11.03
2019-03-27T07:16:43.408Z,11.70
2019-03-27T07:19:09.210Z,9.30
2019-03-27T07:21:34.994Z,10.67
2019-03-27T07:24:00.805Z,11.77
2019-03-27T07:26:26.581Z,8.73
2019-03-27T07:28:52.380Z,8.63
2019-03-27T07:31:18.154Z,8.30
2019-03-27T07:33:43.958Z,8.43
2019-03-27T07:36:09.740Z,7.33
2019-03-27T07:38:35.529Z,10.83
2019-03-27T07:41:01.320Z,10.70
2019-03-27T07:43:27.119Z,7.03
2019-03-27T07:45:52.904Z,11.33
2019-03-27T07:48:18.685Z,8.43
2019-03-27T07:50:44.476Z,8.90
2019-03-27T07:53:10.266Z,9.33
2019-03-27T07:55:36.093Z,9.83
2019-03-27T07:58:01.867Z,10.83
2019-03-27T08:00:27.667Z,9.37
2019-03-27T08:02:53.454Z,10.60
2019-03-27T08:05:19.269Z,11.20
2019-03-27T08:07:45.036Z,9.97
2019-03-27T08:10:10.934Z,9.90
2019-03-27T08:12:36.715Z,12.47
2019-03-27T08:15:06.013Z,11.13
2019-03-27T08:17:32.103Z,11.20
2019-03-27T08:19:57.910Z,9.77
2019-03-27T08:22:23.708Z,5.77
2019-03-27T08:24:49.495Z,9.53
2019-03-27T08:27:15.293Z,10.50
2019-03-27T08:29:41.110Z,10.60
2019-03-27T08:32:06.887Z,8.63
2019-03-27T08:34:32.699Z,9.37
2019-03-27T08:36:58.489Z,9.20
2019-03-27T08:39:24.266Z,9.87
2019-03-27T08:41:50.064Z,9.83
2019-03-27T08:44:15.841Z,8.53
2019-03-27T08:46:41.643Z,9.13
2019-03-27T08:49:20.796Z,7.17
2019-03-27T08:51:35.114Z,8.53
2019-03-27T08:54:00.905Z,8.33
2019-03-27T08:56:26.710Z,7.97
2019-03-27T08:58:52.592Z,8.20
2019-03-27T09:01:18.491Z,10.63
2019-03-27T09:03:44.264Z,10.13
2019-03-27T09:06:10.051Z,9.40
2019-03-27T09:08:35.836Z,9.43
2019-03-27T09:11:04.479Z,8.93
2019-03-27T09:13:29.312Z,8.33
2019-03-27T09:15:55.102Z,7.87
2019-03-27T09:18:20.956Z,7.07
2019-03-27T09:20:46.810Z,10.10
2019-03-27T09:23:12.603Z,8.30
2019-03-27T09:25:38.398Z,8.67
2019-03-27T09:28:04.298Z,12.53
2019-03-27T09:30:30.197Z,9.77
2019-03-27T09:32:55.988Z,9.87
2019-03-27T09:35:21.776Z,8.73
2019-03-27T09:37:47.569Z,6.70
2019-03-27T09:40:15.059Z,8.53
2019-03-27T09:42:40.867Z,8.47
2019-03-27T09:45:07.645Z,8.57
2019-03-27T09:47:34.785Z,9.03
2019-03-27T09:50:00.692Z,12.30
2019-03-27T09:52:26.491Z,9.27
2019-03-27T09:54:52.268Z,7.73
2019-03-27T09:57:18.072Z,8.43
2019-03-27T09:59:43.851Z,9.60
2019-03-27T10:02:09.652Z,9.67
2019-03-27T10:04:35.437Z,7.20
2019-03-27T10:07:01.318Z,6.77
2019-03-27T10:09:27.123Z,6.03
2019-03-27T10:11:52.911Z,5.60
2019-03-27T10:14:18.702Z,5.63
2019-03-27T10:16:44.483Z,6.57
2019-03-27T10:19:10.280Z,6.43
2019-03-27T10:21:36.058Z,5.17
2019-03-27T10:24:01.871Z,5.13
2019-03-27T10:26:27.652Z,5.00
2019-03-27T10:28:53.455Z,6.63
2019-03-27T10:31:19.468Z,8.97
2019-03-27T10:33:45.277Z,5.40
2019-03-27T10:36:11.061Z,4.57
2019-03-27T10:38:36.860Z,5.80
2019-03-27T10:41:02.881Z,4.50
2019-03-27T10:43:28.693Z,5.57
2019-03-27T10:45:54.466Z,4.67
2019-03-27T10:48:20.267Z,3.77
2019-03-27T10:50:46.110Z,4.43
2019-03-27T10:53:11.895Z,6.23
2019-03-27T10:55:37.997Z,5.80
2019-03-27T10:58:03.849Z,5.23
2019-03-27T11:00:29.637Z,5.67
2019-03-27T11:02:55.415Z,4.37
2019-03-27T11:05:21.218Z,3.80
2019-03-27T11:07:47.057Z,4.50
2019-03-27T11:10:12.936Z,4.73
2019-03-27T11:12:38.767Z,5.33
2019-03-27T11:15:08.046Z,4.23
2019-03-27T11:17:33.837Z,4.50
2019-03-27T11:19:59.636Z,6.10
2019-03-27T11:22:25.427Z,5.70
2019-03-27T11:24:51.230Z,6.87
2019-03-27T11:27:17.018Z,6.63
2019-03-27T11:29:42.813Z,4.63
2019-03-27T11:32:08.603Z,6.70
2019-03-27T11:34:34.391Z,5.90
2019-03-27T11:37:00.179Z,5.20
2019-03-27T11:39:25.963Z,6.90
2019-03-27T11:41:51.737Z,5.10
2019-03-27T11:44:17.535Z,5.03
2019-03-27T11:46:43.320Z,4.93
2019-03-27T11:49:09.099Z,5.13
2019-03-27T11:51:34.912Z,3.67
2019-03-27T11:54:00.714Z,4.47
2019-03-27T11:56:26.470Z,3.97
2019-03-27T11:58:52.253Z,6.07
2019-03-27T12:01:18.059Z,5.33
2019-03-27T12:03:43.818Z,4.33
2019-03-27T12:06:09.624Z,5.87
2019-03-27T12:08:35.405Z,5.33
2019-03-27T12:11:01.200Z,4.67
2019-03-27T12:13:27.002Z,5.03
2019-03-27T12:15:52.803Z,5.33
2019-03-27T12:18:18.581Z,5.43
2019-03-27T12:20:57.766Z,7.43
2019-03-27T12:23:12.384Z,4.77
2019-03-27T12:25:39.002Z,6.43
2019-03-27T12:28:04.796Z,5.03
2019-03-27T12:30:30.573Z,9.43
2019-03-27T12:32:56.383Z,6.13
2019-03-27T12:35:22.159Z,6.93
2019-03-27T12:37:47.953Z,7.57
2019-03-27T12:40:13.740Z,6.47
2019-03-27T12:42:39.532Z,5.03
2019-03-27T12:45:05.425Z,6.93
2019-03-27T12:47:31.219Z,7.43
2019-03-27T12:49:57.009Z,5.83
2019-03-27T12:52:22.806Z,8.27
2019-03-27T12:54:48.584Z,7.07
2019-03-27T12:57:14.376Z,6.43
2019-03-27T12:59:40.164Z,6.33
2019-03-27T13:02:06.073Z,6.53
2019-03-27T13:04:31.853Z,7.00
2019-03-27T13:06:57.659Z,6.40
2019-03-27T13:09:23.429Z,5.70
2019-03-27T13:11:49.225Z,6.03
2019-03-27T13:14:15.010Z,6.17
2019-03-27T13:16:40.792Z,5.43
2019-03-27T13:19:06.587Z,6.50
2019-03-27T13:21:32.374Z,5.93
2019-03-27T13:23:58.179Z,5.70
2019-03-27T13:26:23.962Z,5.87
2019-03-27T13:28:49.754Z,8.60
2019-03-27T13:31:15.530Z,7.03
2019-03-27T13:33:41.318Z,5.27
2019-03-27T13:36:07.307Z,6.13
2019-03-27T13:38:33.107Z,5.57
2019-03-27T13:40:58.887Z,9.37
2019-03-27T13:43:24.678Z,6.87
2019-03-27T13:45:50.467Z,5.67
2019-03-27T13:48:16.268Z,4.87
2019-03-27T13:50:42.049Z,7.10
2019-03-27T13:53:07.844Z,5.70
2019-03-27T13:55:35.235Z,5.30
2019-03-27T13:58:01.230Z,6.27
2019-03-27T14:00:27.020Z,4.67
2019-03-27T14:02:52.799Z,4.50
2019-03-27T14:05:18.597Z,5.70
2019-03-27T14:07:44.370Z,4.37
2019-03-27T14:10:10.376Z,4.80
2019-03-27T14:12:36.157Z,5.93
2019-03-27T14:15:04.951Z,4.90
2019-03-27T14:17:30.736Z,4.23
2019-03-27T14:19:56.523Z,5.60
2019-03-27T14:22:22.326Z,5.70
2019-03-27T14:24:48.128Z,5.93
2019-03-27T14:27:13.903Z,4.00
2019-03-27T14:29:39.701Z,6.37
2019-03-27T14:32:05.484Z,5.10
2019-03-27T14:34:31.296Z,5.83
2019-03-27T14:36:57.113Z,5.97
2019-03-27T14:39:22.999Z,5.50
2019-03-27T14:41:48.789Z,4.43
2019-03-27T14:44:14.606Z,4.47
2019-03-27T14:46:40.382Z,4.30
2019-03-27T14:49:06.164Z,5.40
2019-03-27T14:51:31.956Z,4.57
2019-03-27T14:53:57.744Z,5.43
2019-03-27T14:56:23.565Z,6.83
2019-03-27T14:58:49.358Z,7.87
2019-03-27T15:01:15.141Z,8.53
2019-03-27T15:03:40.919Z,9.70
2019-03-27T15:06:06.726Z,8.80
2019-03-27T15:08:32.499Z,12.40
2019-03-27T15:10:58.288Z,12.63
2019-03-27T15:13:24.076Z,14.07
2019-03-27T15:15:49.879Z,15.70
2019-03-27T15:18:15.656Z,12.57
2019-03-27T15:20:41.443Z,12.00
2019-03-27T15:23:07.245Z,14.47
2019-03-27T15:25:33.033Z,14.33
2019-03-27T15:27:58.818Z,11.67
2019-03-27T15:30:24.769Z,13.00
2019-03-27T15:32:50.565Z,8.73
2019-03-27T15:35:16.372Z,5.70
2019-03-27T15:37:42.153Z,8.97
2019-03-27T15:40:08.047Z,9.03
2019-03-27T15:42:33.921Z,9.40
2019-03-27T15:44:59.827Z,8.53
2019-03-27T15:47:25.577Z,7.30
2019-03-27T15:49:51.363Z,9.30
2019-03-27T15:52:17.163Z,7.70
2019-03-27T15:54:42.951Z,9.37
2019-03-27T15:57:08.749Z,7.53
2019-03-27T15:59:34.529Z,6.20
2019-03-27T16:02:00.323Z,9.77
2019-03-27T16:04:26.105Z,7.10
2019-03-27T16:06:51.974Z,7.03
2019-03-27T16:09:18.772Z,6.77
2019-03-27T16:11:44.575Z,7.73
2019-03-27T16:14:10.447Z,10.17
2019-03-27T16:16:36.244Z,8.87
2019-03-27T16:19:02.023Z,10.73
2019-03-27T16:21:27.815Z,8.83
2019-03-27T16:24:05.897Z,11.57
2019-03-27T16:26:21.309Z,10.27
2019-03-27T16:28:47.123Z,12.20
2019-03-27T16:31:12.898Z,8.07
2019-03-27T16:33:38.713Z,11.17
2019-03-27T16:36:04.498Z,11.77
2019-03-27T16:38:30.291Z,11.97
2019-03-27T16:40:56.070Z,8.70
2019-03-27T16:43:21.870Z,12.70
2019-03-27T16:45:48.146Z,9.50
2019-03-27T16:48:13.944Z,10.70
2019-03-27T16:50:39.726Z,10.80
2019-03-27T16:53:05.518Z,12.27
2019-03-27T16:55:31.316Z,10.03
2019-03-27T16:57:57.112Z,14.60
2019-03-27T17:00:22.887Z,13.13
2019-03-27T17:02:48.686Z,8.40
2019-03-27T17:05:15.945Z,13.63
2019-03-27T17:07:41.856Z,12.63
2019-03-27T17:10:07.954Z,15.20
2019-03-27T17:12:33.741Z,9.57
2019-03-27T17:14:59.522Z,10.10
2019-03-27T17:17:25.311Z,12.17
2019-03-27T17:19:51.097Z,9.37
2019-03-27T17:22:19.679Z,14.07
2019-03-27T17:24:44.594Z,13.97
2019-03-27T17:27:10.491Z,11.07
2019-03-27T17:29:36.396Z,9.10
2019-03-27T17:32:02.192Z,10.40
2019-03-27T17:34:27.997Z,15.67
2019-03-27T17:36:53.769Z,15.23
2019-03-27T17:39:19.569Z,13.27
2019-03-27T17:41:45.355Z,14.70
2019-03-27T17:44:11.159Z,17.70
2019-03-27T17:46:36.938Z,11.87
2019-03-27T17:49:02.829Z,16.23
2019-03-27T17:51:28.620Z,10.67
2019-03-27T17:53:54.407Z,12.93
2019-03-27T17:56:20.207Z,11.53
2019-03-27T17:58:46.004Z,10.23
2019-03-27T18:01:11.788Z,11.00
2019-03-27T18:03:37.619Z,12.50
2019-03-27T18:06:03.504Z,13.30
2019-03-27T18:08:29.276Z,16.93
2019-03-27T18:10:55.078Z,14.67
2019-03-27T18:13:20.858Z,14.00
2019-03-27T18:15:46.646Z,14.20
2019-03-27T18:18:12.433Z,10.80
2019-03-27T18:20:38.247Z,14.33
2019-03-27T18:23:04.139Z,13.53
2019-03-27T18:25:29.930Z,17.03
2019-03-27T18:27:58.364Z,15.57
2019-03-27T18:30:23.393Z,19.70
2019-03-27T18:32:49.186Z,14.00
2019-03-27T18:35:14.989Z,12.40
2019-03-27T18:37:40.774Z,14.50
2019-03-27T18:40:06.907Z,15.93
2019-03-27T18:42:32.786Z,16.37
2019-03-27T18:44:58.631Z,14.63
2019-03-27T18:47:24.411Z,13.03
2019-03-27T18:49:50.402Z,15.20
2019-03-27T18:52:16.198Z,18.07
2019-03-27T18:54:41.980Z,13.37
2019-03-27T18:57:07.774Z,12.00
2019-03-27T18:59:33.556Z,12.87
2019-03-27T19:01:59.347Z,17.27
2019-03-27T19:04:25.345Z,16.87
2019-03-27T19:06:51.145Z,14.73
2019-03-27T19:09:16.918Z,19.10
2019-03-27T19:11:42.711Z,17.93
2019-03-27T19:14:08.492Z,19.03
2019-03-27T19:16:34.284Z,14.83
2019-03-27T19:19:00.062Z,18.27
2019-03-27T19:21:25.853Z,15.53
2019-03-27T19:23:53.136Z,17.90
2019-03-27T19:26:18.936Z,20.30
2019-03-27T19:28:44.716Z,17.57
2019-03-27T19:31:10.508Z,22.33
2019-03-27T19:33:36.288Z,20.00
2019-03-27T19:36:02.193Z,15.30
2019-03-27T19:38:27.997Z,20.27
2019-03-27T19:40:53.744Z,20.03
2019-03-27T19:43:19.539Z,17.90
2019-03-27T19:45:45.420Z,20.77
2019-03-27T19:48:11.211Z,20.23
2019-03-27T19:50:37.008Z,19.63
2019-03-27T19:53:02.901Z,18.53
2019-03-27T19:55:28.680Z,19.33
2019-03-27T19:57:54.467Z,15.53
2019-03-27T20:00:21.564Z,15.00
2019-03-27T20:02:47.378Z,22.07
2019-03-27T20:05:13.151Z,22.07
2019-03-27T20:07:38.944Z,17.73
2019-03-27T20:10:05.724Z,13.33
2019-03-27T20:12:31.521Z,14.67
2019-03-27T20:15:10.849Z,19.90
2019-03-27T20:17:25.594Z,17.67
2019-03-27T20:19:51.373Z,14.63
2019-03-27T20:22:17.178Z,19.80
2019-03-27T20:24:42.971Z,21.17
2019-03-27T20:27:09.269Z,19.73
2019-03-27T20:29:35.131Z,18.70
2019-03-27T20:32:01.237Z,19.13
2019-03-27T20:34:27.326Z,20.23
2019-03-27T20:36:53.322Z,22.37
2019-03-27T20:39:19.128Z,19.97
2019-03-27T20:41:45.087Z,20.33
2019-03-27T20:44:11.080Z,25.83
2019-03-27T20:46:37.239Z,21.40
2019-03-27T20:49:03.356Z,19.63
2019-03-27T20:51:29.141Z,22.23
2019-03-27T20:53:54.934Z,18.90
2019-03-27T20:56:20.944Z,24.43
2019-03-27T20:58:46.933Z,30.60
2019-03-27T21:01:12.844Z,23.17
2019-03-27T21:03:40.226Z,22.77
2019-03-27T21:06:06.006Z,26.20
2019-03-27T21:08:31.882Z,23.60
2019-03-27T21:10:57.659Z,19.60
2019-03-27T21:13:23.445Z,21.50
2019-03-27T21:15:49.232Z,23.47
2019-03-27T21:18:15.013Z,19.93
2019-03-27T21:20:40.808Z,21.90
2019-03-27T21:23:06.652Z,29.67
2019-03-27T21:25:32.448Z,22.30
2019-03-27T21:27:58.231Z,21.40
2019-03-27T21:30:24.032Z,22.03
2019-03-27T21:32:49.823Z,27.30
2019-03-27T21:35:15.612Z,22.93
2019-03-27T21:37:41.396Z,23.93
2019-03-27T21:40:07.493Z,23.83
2019-03-27T21:42:33.270Z,21.40
2019-03-27T21:44:59.073Z,21.53
2019-03-27T21:47:24.899Z,22.63
2019-03-27T21:49:50.764Z,22.67
2019-03-27T21:52:16.607Z,23.63
2019-03-27T21:54:42.531Z,21.30
2019-03-27T21:57:08.560Z,21.43
2019-03-27T21:59:34.686Z,27.20
2019-03-27T22:02:02.740Z,28.27
2019-03-27T22:04:28.538Z,23.67
2019-03-27T22:06:54.389Z,26.17
2019-03-27T22:09:20.583Z,18.63
2019-03-27T22:11:46.367Z,21.77
2019-03-27T22:14:12.160Z,25.83
2019-03-27T22:16:37.943Z,21.90
2019-03-27T22:19:04.017Z,26.93
2019-03-27T22:21:30.057Z,23.53
2019-03-27T22:23:55.867Z,26.10
2019-03-27T22:26:21.895Z,27.40
2019-03-27T22:28:50.756Z,19.90
2019-03-27T22:31:16.679Z,23.60
2019-03-27T22:33:42.457Z,19.47
2019-03-27T22:36:08.254Z,26.70
2019-03-27T22:38:34.675Z,28.13
2019-03-27T22:41:00.794Z,27.10
2019-03-27T22:43:28.026Z,26.97
2019-03-27T22:45:53.958Z,23.30
2019-03-27T22:48:19.891Z,24.23
2019-03-27T22:50:45.655Z,26.93
2019-03-27T22:53:11.446Z,24.23
2019-03-27T22:55:49.000Z,21.13
2019-03-27T22:58:04.978Z,21.17
2019-03-27T23:00:44.695Z,26.97
2019-03-27T23:03:18.046Z,28.17
2019-03-27T23:05:38.290Z,25.67
2019-03-27T23:08:04.065Z,20.97
2019-03-27T23:10:29.854Z,23.13
2019-03-27T23:12:55.707Z,24.23
2019-03-27T23:15:21.481Z,19.93
2019-03-27T23:17:47.280Z,25.53
2019-03-27T23:20:13.165Z,24.03
2019-03-27T23:22:38.971Z,27.07
2019-03-27T23:25:05.062Z,29.93
2019-03-27T23:27:30.851Z,29.70
2019-03-27T23:29:56.631Z,23.67
2019-03-27T23:32:22.419Z,29.30
2019-03-27T23:34:48.206Z,24.43
2019-03-27T23:37:14.054Z,25.47
2019-03-27T23:39:39.830Z,25.77
2019-03-27T23:42:05.619Z,27.67
2019-03-27T23:44:31.403Z,25.60
2019-03-27T23:46:57.208Z,26.90
2019-03-27T23:49:22.986Z,25.57
2019-03-27T23:51:48.781Z,27.87
2019-03-27T23:54:14.554Z,24.57
2019-03-27T23:56:40.379Z,29.43
2019-03-27T23:59:06.155Z,31.77
